sensor_id;sensor_type;location;lat;lon;timestamp;temperature;humidity
981;DHT22;479;53.514;9.994;2024-02-16T00:00:28;11.40;99.90
981;DHT22;479;53.514;9.994;2024-02-16T00:02:55;11.40;99.90
981;DHT22;479;53.514;9.994;2024-02-16T00:05:22;11.40;99.90
981;DHT22;479;53.514;9.994;2024-02-16T00:07:49;11.40;99.90
981;DHT22;479;53.514;9.994;2024-02-16T00:10:16;11.30;99.90
981;DHT22;479;53.514;9.994;2024-02-16T00:12:44;11.30;99.90
981;DHT22;479;53.514;9.994;2024-02-16T00:15:11;11.30;99.90
981;DHT22;479;53.514;9.994;2024-02-16T00:17:40;11.30;99.90
981;DHT22;479;53.514;9.994;2024-02-16T00:20:07;11.30;99.90
981;DHT22;479;53.514;9.994;2024-02-16T00:22:35;11.30;99.90
981;DHT22;479;53.514;9.994;2024-02-16T00:25:04;11.30;99.90
981;DHT22;479;53.514;9.994;2024-02-16T00:27:31;11.30;99.90
981;DHT22;479;53.514;9.994;2024-02-16T00:29:58;11.30;99.90
981;DHT22;479;53.514;9.994;2024-02-16T00:32:25;11.30;99.90
981;DHT22;479;53.514;9.994;2024-02-16T00:34:57;11.20;99.90
981;DHT22;479;53.514;9.994;2024-02-16T00:37:24;11.20;99.90
981;DHT22;479;53.514;9.994;2024-02-16T00:39:51;11.20;99.90
981;DHT22;479;53.514;9.994;2024-02-16T00:42:20;11.20;99.90
981;DHT22;479;53.514;9.994;2024-02-16T00:44:48;11.20;99.90
981;DHT22;479;53.514;9.994;2024-02-16T00:47:15;11.20;99.90
981;DHT22;479;53.514;9.994;2024-02-16T00:49:43;11.20;99.90
981;DHT22;479;53.514;9.994;2024-02-16T00:52:11;11.10;99.90
981;DHT22;479;53.514;9.994;2024-02-16T00:54:38;11.10;99.90
981;DHT22;479;53.514;9.994;2024-02-16T00:57:05;11.10;99.90
981;DHT22;479;53.514;9.994;2024-02-16T00:59:32;11.10;99.90
981;DHT22;479;53.514;9.994;2024-02-16T01:01:59;11.00;99.90
981;DHT22;479;53.514;9.994;2024-02-16T01:04:25;11.00;99.90
981;DHT22;479;53.514;9.994;2024-02-16T01:06:52;10.90;99.90
981;DHT22;479;53.514;9.994;2024-02-16T01:09:20;10.90;99.90
981;DHT22;479;53.514;9.994;2024-02-16T01:11:47;10.90;99.90
981;DHT22;479;53.514;9.994;2024-02-16T01:14:14;10.90;99.90
981;DHT22;479;53.514;9.994;2024-02-16T01:16:41;10.90;99.90
981;DHT22;479;53.514;9.994;2024-02-16T01:19:08;10.90;99.90
981;DHT22;479;53.514;9.994;2024-02-16T01:21:35;10.90;99.90
981;DHT22;479;53.514;9.994;2024-02-16T01:24:02;10.90;99.90
981;DHT22;479;53.514;9.994;2024-02-16T01:26:31;10.90;99.90
981;DHT22;479;53.514;9.994;2024-02-16T01:28:58;10.90;99.90
981;DHT22;479;53.514;9.994;2024-02-16T01:31:25;10.90;99.90
981;DHT22;479;53.514;9.994;2024-02-16T01:33:52;10.80;99.90
981;DHT22;479;53.514;9.994;2024-02-16T01:36:19;10.80;99.90
981;DHT22;479;53.514;9.994;2024-02-16T01:38:46;10.80;99.90
981;DHT22;479;53.514;9.994;2024-02-16T01:41:12;10.80;99.90
981;DHT22;479;53.514;9.994;2024-02-16T01:43:42;10.90;99.90
981;DHT22;479;53.514;9.994;2024-02-16T01:46:09;10.80;99.90
981;DHT22;479;53.514;9.994;2024-02-16T01:48:36;10.70;99.90
981;DHT22;479;53.514;9.994;2024-02-16T01:51:05;10.70;99.90
981;DHT22;479;53.514;9.994;2024-02-16T01:53:33;10.70;99.90
981;DHT22;479;53.514;9.994;2024-02-16T01:56:02;10.80;99.90
981;DHT22;479;53.514;9.994;2024-02-16T01:58:29;10.80;99.90
981;DHT22;479;53.514;9.994;2024-02-16T02:00:57;10.80;99.90
981;DHT22;479;53.514;9.994;2024-02-16T02:03:24;10.80;99.90
981;DHT22;479;53.514;9.994;2024-02-16T02:05:51;10.80;99.90
981;DHT22;479;53.514;9.994;2024-02-16T02:08:20;10.80;99.90
981;DHT22;479;53.514;9.994;2024-02-16T02:10:47;10.80;99.90
981;DHT22;479;53.514;9.994;2024-02-16T02:13:14;10.80;99.90
981;DHT22;479;53.514;9.994;2024-02-16T02:15:41;10.80;99.90
981;DHT22;479;53.514;9.994;2024-02-16T02:18:10;10.80;99.90
981;DHT22;479;53.514;9.994;2024-02-16T02:20:36;10.70;99.90
981;DHT22;479;53.514;9.994;2024-02-16T02:23:05;10.70;99.90
981;DHT22;479;53.514;9.994;2024-02-16T02:25:32;10.70;99.90
981;DHT22;479;53.514;9.994;2024-02-16T02:27:59;10.60;99.90
981;DHT22;479;53.514;9.994;2024-02-16T02:30:28;10.60;99.90
981;DHT22;479;53.514;9.994;2024-02-16T02:32:55;10.60;99.90
981;DHT22;479;53.514;9.994;2024-02-16T02:35:22;10.60;99.90
981;DHT22;479;53.514;9.994;2024-02-16T02:37:51;10.70;99.90
981;DHT22;479;53.514;9.994;2024-02-16T02:40:19;10.70;99.90
981;DHT22;479;53.514;9.994;2024-02-16T02:42:46;10.70;99.90
981;DHT22;479;53.514;9.994;2024-02-16T02:45:17;10.70;99.90
981;DHT22;479;53.514;9.994;2024-02-16T02:47:47;10.80;99.90
981;DHT22;479;53.514;9.994;2024-02-16T02:50:14;10.80;99.90
981;DHT22;479;53.514;9.994;2024-02-16T02:52:42;10.80;99.90
981;DHT22;479;53.514;9.994;2024-02-16T02:55:13;10.80;99.90
981;DHT22;479;53.514;9.994;2024-02-16T02:57:44;10.80;99.90
981;DHT22;479;53.514;9.994;2024-02-16T03:00:13;10.80;99.90
981;DHT22;479;53.514;9.994;2024-02-16T03:02:42;10.90;99.90
981;DHT22;479;53.514;9.994;2024-02-16T03:05:12;10.90;99.90
981;DHT22;479;53.514;9.994;2024-02-16T03:07:40;10.90;99.90
981;DHT22;479;53.514;9.994;2024-02-16T03:10:11;11.00;99.90
981;DHT22;479;53.514;9.994;2024-02-16T03:12:44;11.00;99.90
981;DHT22;479;53.514;9.994;2024-02-16T03:15:13;11.10;99.90
981;DHT22;479;53.514;9.994;2024-02-16T03:17:40;11.10;99.90
981;DHT22;479;53.514;9.994;2024-02-16T03:20:09;11.10;99.90
981;DHT22;479;53.514;9.994;2024-02-16T03:22:36;11.10;99.90
981;DHT22;479;53.514;9.994;2024-02-16T03:25:03;11.10;99.90
981;DHT22;479;53.514;9.994;2024-02-16T03:27:31;11.10;99.90
981;DHT22;479;53.514;9.994;2024-02-16T03:29:59;11.10;99.90
981;DHT22;479;53.514;9.994;2024-02-16T03:32:26;11.10;99.90
981;DHT22;479;53.514;9.994;2024-02-16T03:34:53;11.10;99.90
981;DHT22;479;53.514;9.994;2024-02-16T03:37:20;11.20;99.90
981;DHT22;479;53.514;9.994;2024-02-16T03:39:46;11.20;99.90
981;DHT22;479;53.514;9.994;2024-02-16T03:42:13;11.20;99.90
981;DHT22;479;53.514;9.994;2024-02-16T03:44:40;11.20;99.90
981;DHT22;479;53.514;9.994;2024-02-16T03:47:08;11.20;99.90
981;DHT22;479;53.514;9.994;2024-02-16T03:49:35;11.20;99.90
981;DHT22;479;53.514;9.994;2024-02-16T03:52:03;11.20;99.90
981;DHT22;479;53.514;9.994;2024-02-16T03:54:30;11.30;99.90
981;DHT22;479;53.514;9.994;2024-02-16T03:56:57;11.30;99.90
981;DHT22;479;53.514;9.994;2024-02-16T03:59:24;11.30;99.90
981;DHT22;479;53.514;9.994;2024-02-16T04:01:51;11.30;99.90
981;DHT22;479;53.514;9.994;2024-02-16T04:04:19;11.30;99.90
981;DHT22;479;53.514;9.994;2024-02-16T04:06:46;11.30;99.90
981;DHT22;479;53.514;9.994;2024-02-16T04:09:13;11.30;99.90
981;DHT22;479;53.514;9.994;2024-02-16T04:11:40;11.30;99.90
981;DHT22;479;53.514;9.994;2024-02-16T04:14:07;11.40;99.90
981;DHT22;479;53.514;9.994;2024-02-16T04:16:33;11.30;99.90
981;DHT22;479;53.514;9.994;2024-02-16T04:19:00;11.30;99.90
981;DHT22;479;53.514;9.994;2024-02-16T04:21:29;11.30;99.90
981;DHT22;479;53.514;9.994;2024-02-16T04:23:55;11.30;99.90
981;DHT22;479;53.514;9.994;2024-02-16T04:26:22;11.30;99.90
981;DHT22;479;53.514;9.994;2024-02-16T04:28:49;11.30;99.90
981;DHT22;479;53.514;9.994;2024-02-16T04:31:16;11.30;99.90
981;DHT22;479;53.514;9.994;2024-02-16T04:33:43;11.30;99.90
981;DHT22;479;53.514;9.994;2024-02-16T04:36:10;11.30;99.90
981;DHT22;479;53.514;9.994;2024-02-16T04:38:38;11.30;99.90
981;DHT22;479;53.514;9.994;2024-02-16T04:41:05;11.30;99.90
981;DHT22;479;53.514;9.994;2024-02-16T04:43:32;11.30;99.90
981;DHT22;479;53.514;9.994;2024-02-16T04:45:59;11.30;99.90
981;DHT22;479;53.514;9.994;2024-02-16T04:48:26;11.30;99.90
981;DHT22;479;53.514;9.994;2024-02-16T04:50:54;11.30;99.90
981;DHT22;479;53.514;9.994;2024-02-16T04:53:21;11.30;99.90
981;DHT22;479;53.514;9.994;2024-02-16T04:55:49;11.20;99.90
981;DHT22;479;53.514;9.994;2024-02-16T04:58:16;11.30;99.90
981;DHT22;479;53.514;9.994;2024-02-16T05:00:43;11.30;99.90
981;DHT22;479;53.514;9.994;2024-02-16T05:03:12;11.30;99.90
981;DHT22;479;53.514;9.994;2024-02-16T05:05:39;11.30;99.90
981;DHT22;479;53.514;9.994;2024-02-16T05:08:06;11.30;99.90
981;DHT22;479;53.514;9.994;2024-02-16T05:10:33;11.20;99.90
981;DHT22;479;53.514;9.994;2024-02-16T05:13:02;11.30;99.90
981;DHT22;479;53.514;9.994;2024-02-16T05:15:29;11.20;99.90
981;DHT22;479;53.514;9.994;2024-02-16T05:17:57;11.30;99.90
981;DHT22;479;53.514;9.994;2024-02-16T05:20:24;11.30;99.90
981;DHT22;479;53.514;9.994;2024-02-16T05:22:51;11.30;99.90
981;DHT22;479;53.514;9.994;2024-02-16T05:25:19;11.20;99.90
981;DHT22;479;53.514;9.994;2024-02-16T05:27:46;11.20;99.90
981;DHT22;479;53.514;9.994;2024-02-16T05:30:14;11.30;99.90
981;DHT22;479;53.514;9.994;2024-02-16T05:32:42;11.20;99.90
981;DHT22;479;53.514;9.994;2024-02-16T05:35:10;11.30;99.90
981;DHT22;479;53.514;9.994;2024-02-16T05:37:40;11.20;99.90
981;DHT22;479;53.514;9.994;2024-02-16T05:40:10;11.20;99.90
981;DHT22;479;53.514;9.994;2024-02-16T05:42:47;11.10;99.90
981;DHT22;479;53.514;9.994;2024-02-16T05:45:16;11.10;99.90
981;DHT22;479;53.514;9.994;2024-02-16T05:47:45;11.10;99.90
981;DHT22;479;53.514;9.994;2024-02-16T05:50:13;11.10;99.90
981;DHT22;479;53.514;9.994;2024-02-16T05:52:40;11.10;99.90
981;DHT22;479;53.514;9.994;2024-02-16T05:55:08;11.10;99.90
981;DHT22;479;53.514;9.994;2024-02-16T05:57:36;11.00;99.90
981;DHT22;479;53.514;9.994;2024-02-16T06:00:03;11.00;99.90
981;DHT22;479;53.514;9.994;2024-02-16T06:02:32;11.00;99.90
981;DHT22;479;53.514;9.994;2024-02-16T06:04:59;11.00;99.90
981;DHT22;479;53.514;9.994;2024-02-16T06:07:26;11.00;99.90
981;DHT22;479;53.514;9.994;2024-02-16T06:09:55;11.00;99.90
981;DHT22;479;53.514;9.994;2024-02-16T06:12:22;11.00;99.90
981;DHT22;479;53.514;9.994;2024-02-16T06:14:49;11.00;99.90
981;DHT22;479;53.514;9.994;2024-02-16T06:17:18;10.90;99.90
981;DHT22;479;53.514;9.994;2024-02-16T06:19:46;10.90;99.90
981;DHT22;479;53.514;9.994;2024-02-16T06:22:13;10.90;99.90
981;DHT22;479;53.514;9.994;2024-02-16T06:24:40;10.90;99.90
981;DHT22;479;53.514;9.994;2024-02-16T06:27:07;10.90;99.90
981;DHT22;479;53.514;9.994;2024-02-16T06:29:34;10.90;99.90
981;DHT22;479;53.514;9.994;2024-02-16T06:32:01;10.80;99.90
981;DHT22;479;53.514;9.994;2024-02-16T06:34:29;10.80;99.90
981;DHT22;479;53.514;9.994;2024-02-16T06:36:58;10.80;99.90
981;DHT22;479;53.514;9.994;2024-02-16T06:39:25;10.80;99.90
981;DHT22;479;53.514;9.994;2024-02-16T06:41:52;10.80;99.90
981;DHT22;479;53.514;9.994;2024-02-16T06:44:18;10.80;99.90
981;DHT22;479;53.514;9.994;2024-02-16T06:46:45;10.80;99.90
981;DHT22;479;53.514;9.994;2024-02-16T06:49:12;10.80;99.90
981;DHT22;479;53.514;9.994;2024-02-16T06:51:39;10.90;99.90
981;DHT22;479;53.514;9.994;2024-02-16T06:54:08;10.80;99.90
981;DHT22;479;53.514;9.994;2024-02-16T06:56:36;10.80;99.90
981;DHT22;479;53.514;9.994;2024-02-16T06:59:02;10.80;99.90
981;DHT22;479;53.514;9.994;2024-02-16T07:01:29;10.80;99.90
981;DHT22;479;53.514;9.994;2024-02-16T07:03:56;10.80;99.90
981;DHT22;479;53.514;9.994;2024-02-16T07:06:23;10.80;99.90
981;DHT22;479;53.514;9.994;2024-02-16T07:08:51;10.80;99.90
981;DHT22;479;53.514;9.994;2024-02-16T07:11:20;10.80;99.90
981;DHT22;479;53.514;9.994;2024-02-16T07:13:47;10.80;99.90
981;DHT22;479;53.514;9.994;2024-02-16T07:16:14;10.80;99.90
981;DHT22;479;53.514;9.994;2024-02-16T07:18:42;10.80;99.90
981;DHT22;479;53.514;9.994;2024-02-16T07:21:09;10.80;99.90
981;DHT22;479;53.514;9.994;2024-02-16T07:23:36;10.90;99.90
981;DHT22;479;53.514;9.994;2024-02-16T07:26:04;11.00;99.90
981;DHT22;479;53.514;9.994;2024-02-16T07:28:32;11.00;99.90
981;DHT22;479;53.514;9.994;2024-02-16T07:30:59;11.10;99.90
981;DHT22;479;53.514;9.994;2024-02-16T07:33:26;11.20;99.90
981;DHT22;479;53.514;9.994;2024-02-16T07:35:54;11.20;99.90
981;DHT22;479;53.514;9.994;2024-02-16T07:38:21;11.30;99.90
981;DHT22;479;53.514;9.994;2024-02-16T07:40:48;11.30;99.90
981;DHT22;479;53.514;9.994;2024-02-16T07:43:16;11.30;99.90
981;DHT22;479;53.514;9.994;2024-02-16T07:45:45;11.40;99.90
981;DHT22;479;53.514;9.994;2024-02-16T07:48:12;11.40;99.90
981;DHT22;479;53.514;9.994;2024-02-16T07:50:38;11.50;99.90
981;DHT22;479;53.514;9.994;2024-02-16T07:53:05;11.50;99.90
981;DHT22;479;53.514;9.994;2024-02-16T07:55:32;11.50;99.90
981;DHT22;479;53.514;9.994;2024-02-16T07:57:59;11.50;99.90
981;DHT22;479;53.514;9.994;2024-02-16T08:00:26;11.60;99.90
981;DHT22;479;53.514;9.994;2024-02-16T08:02:55;11.70;99.90
981;DHT22;479;53.514;9.994;2024-02-16T08:05:22;11.70;99.90
981;DHT22;479;53.514;9.994;2024-02-16T08:07:50;11.90;99.90
981;DHT22;479;53.514;9.994;2024-02-16T08:10:19;12.00;99.90
981;DHT22;479;53.514;9.994;2024-02-16T08:12:47;12.00;99.90
981;DHT22;479;53.514;9.994;2024-02-16T08:15:14;12.10;99.90
981;DHT22;479;53.514;9.994;2024-02-16T08:17:41;12.10;99.90
981;DHT22;479;53.514;9.994;2024-02-16T08:20:10;12.10;99.90
981;DHT22;479;53.514;9.994;2024-02-16T08:22:37;12.10;99.90
981;DHT22;479;53.514;9.994;2024-02-16T08:25:04;12.10;99.90
981;DHT22;479;53.514;9.994;2024-02-16T08:27:31;12.00;99.90
981;DHT22;479;53.514;9.994;2024-02-16T08:29:59;12.00;99.90
981;DHT22;479;53.514;9.994;2024-02-16T08:32:27;11.90;99.90
981;DHT22;479;53.514;9.994;2024-02-16T08:34:55;11.90;99.90
981;DHT22;479;53.514;9.994;2024-02-16T08:37:25;11.90;99.90
981;DHT22;479;53.514;9.994;2024-02-16T08:39:52;11.80;99.90
981;DHT22;479;53.514;9.994;2024-02-16T08:42:20;11.80;99.90
981;DHT22;479;53.514;9.994;2024-02-16T08:44:48;11.70;99.90
981;DHT22;479;53.514;9.994;2024-02-16T08:47:15;11.70;99.90
981;DHT22;479;53.514;9.994;2024-02-16T08:49:43;11.70;99.90
981;DHT22;479;53.514;9.994;2024-02-16T08:52:10;11.60;99.90
981;DHT22;479;53.514;9.994;2024-02-16T08:54:38;11.60;99.90
981;DHT22;479;53.514;9.994;2024-02-16T08:57:05;11.60;99.90
981;DHT22;479;53.514;9.994;2024-02-16T08:59:32;11.60;99.90
981;DHT22;479;53.514;9.994;2024-02-16T09:02:00;11.60;99.90
981;DHT22;479;53.514;9.994;2024-02-16T09:04:27;11.60;99.90
981;DHT22;479;53.514;9.994;2024-02-16T09:06:54;11.70;99.90
981;DHT22;479;53.514;9.994;2024-02-16T09:09:21;11.80;99.90
981;DHT22;479;53.514;9.994;2024-02-16T09:11:49;11.90;99.90
981;DHT22;479;53.514;9.994;2024-02-16T09:14:16;12.00;99.90
981;DHT22;479;53.514;9.994;2024-02-16T09:16:44;12.10;99.90
981;DHT22;479;53.514;9.994;2024-02-16T09:19:10;12.30;99.90
981;DHT22;479;53.514;9.994;2024-02-16T09:21:37;12.20;99.90
981;DHT22;479;53.514;9.994;2024-02-16T09:24:05;12.20;99.90
981;DHT22;479;53.514;9.994;2024-02-16T09:26:36;12.30;99.90
981;DHT22;479;53.514;9.994;2024-02-16T09:29:04;12.20;99.90
981;DHT22;479;53.514;9.994;2024-02-16T09:31:32;12.20;99.90
981;DHT22;479;53.514;9.994;2024-02-16T09:34:00;12.20;99.90
981;DHT22;479;53.514;9.994;2024-02-16T09:36:28;12.10;99.90
981;DHT22;479;53.514;9.994;2024-02-16T09:38:55;12.10;99.90
981;DHT22;479;53.514;9.994;2024-02-16T09:41:22;12.10;99.90
981;DHT22;479;53.514;9.994;2024-02-16T09:43:49;12.10;99.90
981;DHT22;479;53.514;9.994;2024-02-16T09:46:21;12.20;99.90
981;DHT22;479;53.514;9.994;2024-02-16T09:48:49;12.30;99.90
981;DHT22;479;53.514;9.994;2024-02-16T09:51:18;12.30;99.90
981;DHT22;479;53.514;9.994;2024-02-16T09:53:50;12.40;99.90
981;DHT22;479;53.514;9.994;2024-02-16T09:56:19;12.50;99.90
981;DHT22;479;53.514;9.994;2024-02-16T09:58:46;12.60;99.90
981;DHT22;479;53.514;9.994;2024-02-16T10:01:17;12.70;99.90
981;DHT22;479;53.514;9.994;2024-02-16T10:03:47;12.80;99.90
981;DHT22;479;53.514;9.994;2024-02-16T10:06:22;12.90;99.90
981;DHT22;479;53.514;9.994;2024-02-16T10:08:50;13.00;99.90
981;DHT22;479;53.514;9.994;2024-02-16T10:11:18;13.00;99.90
981;DHT22;479;53.514;9.994;2024-02-16T10:13:56;13.10;99.90
981;DHT22;479;53.514;9.994;2024-02-16T10:16:24;13.30;99.90
981;DHT22;479;53.514;9.994;2024-02-16T10:18:54;13.50;99.90
981;DHT22;479;53.514;9.994;2024-02-16T10:21:25;13.90;99.90
981;DHT22;479;53.514;9.994;2024-02-16T10:23:59;14.20;99.90
981;DHT22;479;53.514;9.994;2024-02-16T10:26:27;14.40;99.90
981;DHT22;479;53.514;9.994;2024-02-16T10:28:55;14.40;99.90
981;DHT22;479;53.514;9.994;2024-02-16T10:31:25;14.40;99.90
981;DHT22;479;53.514;9.994;2024-02-16T10:33:59;14.40;99.90
981;DHT22;479;53.514;9.994;2024-02-16T10:36:27;14.70;99.90
981;DHT22;479;53.514;9.994;2024-02-16T10:38:55;14.70;99.90
981;DHT22;479;53.514;9.994;2024-02-16T10:41:26;14.50;99.90
981;DHT22;479;53.514;9.994;2024-02-16T10:43:54;14.40;99.90
981;DHT22;479;53.514;9.994;2024-02-16T10:46:22;14.30;99.90
981;DHT22;479;53.514;9.994;2024-02-16T10:48:49;14.40;99.90
981;DHT22;479;53.514;9.994;2024-02-16T10:51:22;14.30;99.90
981;DHT22;479;53.514;9.994;2024-02-16T10:53:51;14.40;99.90
981;DHT22;479;53.514;9.994;2024-02-16T10:56:27;14.60;99.90
981;DHT22;479;53.514;9.994;2024-02-16T10:58:54;14.70;99.90
981;DHT22;479;53.514;9.994;2024-02-16T11:01:22;14.70;99.90
981;DHT22;479;53.514;9.994;2024-02-16T11:03:49;14.90;99.90
981;DHT22;479;53.514;9.994;2024-02-16T11:06:28;15.00;99.90
981;DHT22;479;53.514;9.994;2024-02-16T11:09:01;15.10;99.90
981;DHT22;479;53.514;9.994;2024-02-16T11:11:33;15.20;99.90
981;DHT22;479;53.514;9.994;2024-02-16T11:14:01;15.30;99.90
981;DHT22;479;53.514;9.994;2024-02-16T11:16:29;15.40;99.90
981;DHT22;479;53.514;9.994;2024-02-16T11:18:56;15.30;99.90
981;DHT22;479;53.514;9.994;2024-02-16T11:21:23;15.40;99.90
981;DHT22;479;53.514;9.994;2024-02-16T11:23:52;15.40;99.90
981;DHT22;479;53.514;9.994;2024-02-16T11:26:19;15.40;99.90
981;DHT22;479;53.514;9.994;2024-02-16T11:28:46;15.40;99.90
981;DHT22;479;53.514;9.994;2024-02-16T11:31:13;15.40;99.90
981;DHT22;479;53.514;9.994;2024-02-16T11:33:43;15.30;99.90
981;DHT22;479;53.514;9.994;2024-02-16T11:36:10;15.30;99.90
981;DHT22;479;53.514;9.994;2024-02-16T11:38:37;15.30;99.90
981;DHT22;479;53.514;9.994;2024-02-16T11:41:07;15.30;99.90
981;DHT22;479;53.514;9.994;2024-02-16T11:43:34;15.30;99.90
981;DHT22;479;53.514;9.994;2024-02-16T11:46:11;15.20;99.90
981;DHT22;479;53.514;9.994;2024-02-16T11:48:38;15.20;99.90
981;DHT22;479;53.514;9.994;2024-02-16T11:51:05;15.20;99.90
981;DHT22;479;53.514;9.994;2024-02-16T11:53:33;15.20;99.90
981;DHT22;479;53.514;9.994;2024-02-16T11:56:00;15.20;99.90
981;DHT22;479;53.514;9.994;2024-02-16T11:58:30;15.40;99.90
981;DHT22;479;53.514;9.994;2024-02-16T12:00:57;15.50;99.90
981;DHT22;479;53.514;9.994;2024-02-16T12:03:26;15.50;99.90
981;DHT22;479;53.514;9.994;2024-02-16T12:05:54;15.60;99.90
981;DHT22;479;53.514;9.994;2024-02-16T12:08:22;15.60;99.90
981;DHT22;479;53.514;9.994;2024-02-16T12:10:50;15.50;99.90
981;DHT22;479;53.514;9.994;2024-02-16T12:13:18;15.50;99.90
981;DHT22;479;53.514;9.994;2024-02-16T12:15:47;15.60;99.90
981;DHT22;479;53.514;9.994;2024-02-16T12:18:21;15.60;99.90
981;DHT22;479;53.514;9.994;2024-02-16T12:20:58;15.50;99.90
981;DHT22;479;53.514;9.994;2024-02-16T12:23:25;15.50;99.90
981;DHT22;479;53.514;9.994;2024-02-16T12:25:52;15.50;99.90
981;DHT22;479;53.514;9.994;2024-02-16T12:28:19;15.50;99.90
981;DHT22;479;53.514;9.994;2024-02-16T12:30:48;15.50;99.90
981;DHT22;479;53.514;9.994;2024-02-16T12:33:15;15.50;99.90
981;DHT22;479;53.514;9.994;2024-02-16T12:35:42;15.50;99.90
981;DHT22;479;53.514;9.994;2024-02-16T12:38:10;15.40;99.90
981;DHT22;479;53.514;9.994;2024-02-16T12:40:37;15.40;99.90
981;DHT22;479;53.514;9.994;2024-02-16T12:43:04;15.40;99.90
981;DHT22;479;53.514;9.994;2024-02-16T12:45:32;15.40;99.90
981;DHT22;479;53.514;9.994;2024-02-16T12:48:00;15.40;99.90
981;DHT22;479;53.514;9.994;2024-02-16T12:50:27;15.40;99.90
981;DHT22;479;53.514;9.994;2024-02-16T12:52:54;15.40;99.90
981;DHT22;479;53.514;9.994;2024-02-16T12:55:26;15.40;99.90
981;DHT22;479;53.514;9.994;2024-02-16T12:57:53;15.40;99.90
981;DHT22;479;53.514;9.994;2024-02-16T13:00:20;15.40;99.90
981;DHT22;479;53.514;9.994;2024-02-16T13:02:47;15.30;99.90
981;DHT22;479;53.514;9.994;2024-02-16T13:05:15;15.20;99.90
981;DHT22;479;53.514;9.994;2024-02-16T13:07:45;15.10;99.90
981;DHT22;479;53.514;9.994;2024-02-16T13:10:15;15.10;99.90
981;DHT22;479;53.514;9.994;2024-02-16T13:12:42;15.00;99.90
981;DHT22;479;53.514;9.994;2024-02-16T13:15:09;15.00;99.90
981;DHT22;479;53.514;9.994;2024-02-16T13:17:36;15.00;99.90
981;DHT22;479;53.514;9.994;2024-02-16T13:20:04;15.00;99.90
981;DHT22;479;53.514;9.994;2024-02-16T13:22:36;15.00;99.90
981;DHT22;479;53.514;9.994;2024-02-16T13:25:04;15.00;99.90
981;DHT22;479;53.514;9.994;2024-02-16T13:27:31;15.00;99.90
981;DHT22;479;53.514;9.994;2024-02-16T13:29:58;15.00;99.90
981;DHT22;479;53.514;9.994;2024-02-16T13:32:25;14.90;99.90
981;DHT22;479;53.514;9.994;2024-02-16T13:34:52;15.00;99.90
981;DHT22;479;53.514;9.994;2024-02-16T13:37:19;14.90;99.90
981;DHT22;479;53.514;9.994;2024-02-16T13:39:47;14.90;99.90
981;DHT22;479;53.514;9.994;2024-02-16T13:42:15;15.00;99.90
981;DHT22;479;53.514;9.994;2024-02-16T13:44:43;15.00;99.90
981;DHT22;479;53.514;9.994;2024-02-16T13:47:10;15.00;99.90
981;DHT22;479;53.514;9.994;2024-02-16T13:49:37;14.90;99.90
981;DHT22;479;53.514;9.994;2024-02-16T13:52:04;14.90;99.90
981;DHT22;479;53.514;9.994;2024-02-16T13:54:31;14.90;99.90
981;DHT22;479;53.514;9.994;2024-02-16T13:56:59;15.00;99.90
981;DHT22;479;53.514;9.994;2024-02-16T13:59:26;14.90;99.90
981;DHT22;479;53.514;9.994;2024-02-16T14:01:54;15.00;99.90
981;DHT22;479;53.514;9.994;2024-02-16T14:04:22;14.90;99.90
981;DHT22;479;53.514;9.994;2024-02-16T14:06:49;14.90;99.90
981;DHT22;479;53.514;9.994;2024-02-16T14:09:16;15.00;99.90
981;DHT22;479;53.514;9.994;2024-02-16T14:11:45;15.00;99.90
981;DHT22;479;53.514;9.994;2024-02-16T14:14:14;15.00;99.90
981;DHT22;479;53.514;9.994;2024-02-16T14:16:41;15.00;99.90
981;DHT22;479;53.514;9.994;2024-02-16T14:19:08;15.00;99.90
981;DHT22;479;53.514;9.994;2024-02-16T14:21:35;15.00;99.90
981;DHT22;479;53.514;9.994;2024-02-16T14:24:02;15.00;99.90
981;DHT22;479;53.514;9.994;2024-02-16T14:26:29;15.00;99.90
981;DHT22;479;53.514;9.994;2024-02-16T14:28:56;15.00;99.90
981;DHT22;479;53.514;9.994;2024-02-16T14:31:24;15.00;99.90
981;DHT22;479;53.514;9.994;2024-02-16T14:33:51;14.90;99.90
981;DHT22;479;53.514;9.994;2024-02-16T14:36:18;14.90;99.90
981;DHT22;479;53.514;9.994;2024-02-16T14:38:45;14.90;99.90
981;DHT22;479;53.514;9.994;2024-02-16T14:41:13;14.80;99.90
981;DHT22;479;53.514;9.994;2024-02-16T14:43:42;14.80;99.90
981;DHT22;479;53.514;9.994;2024-02-16T14:46:09;14.70;99.90
981;DHT22;479;53.514;9.994;2024-02-16T14:48:38;14.70;99.90
981;DHT22;479;53.514;9.994;2024-02-16T14:51:05;14.60;99.90
981;DHT22;479;53.514;9.994;2024-02-16T14:53:32;14.60;99.90
981;DHT22;479;53.514;9.994;2024-02-16T14:55:59;14.60;99.90
981;DHT22;479;53.514;9.994;2024-02-16T14:58:26;14.50;99.90
981;DHT22;479;53.514;9.994;2024-02-16T15:00:53;14.50;99.90
981;DHT22;479;53.514;9.994;2024-02-16T15:03:20;14.40;99.90
981;DHT22;479;53.514;9.994;2024-02-16T15:05:48;14.30;99.90
981;DHT22;479;53.514;9.994;2024-02-16T15:08:15;14.30;99.90
981;DHT22;479;53.514;9.994;2024-02-16T15:10:41;14.30;99.90
981;DHT22;479;53.514;9.994;2024-02-16T15:13:09;14.20;99.90
981;DHT22;479;53.514;9.994;2024-02-16T15:15:36;14.10;99.90
981;DHT22;479;53.514;9.994;2024-02-16T15:18:03;14.00;99.90
981;DHT22;479;53.514;9.994;2024-02-16T15:20:30;14.00;99.90
981;DHT22;479;53.514;9.994;2024-02-16T15:22:59;13.90;99.90
981;DHT22;479;53.514;9.994;2024-02-16T15:25:25;13.90;99.90
981;DHT22;479;53.514;9.994;2024-02-16T15:27:52;13.80;99.90
981;DHT22;479;53.514;9.994;2024-02-16T15:30:21;13.80;99.90
981;DHT22;479;53.514;9.994;2024-02-16T15:32:48;13.70;99.90
981;DHT22;479;53.514;9.994;2024-02-16T15:35:15;13.70;99.90
981;DHT22;479;53.514;9.994;2024-02-16T15:37:43;13.70;99.90
981;DHT22;479;53.514;9.994;2024-02-16T15:40:12;13.70;99.90
981;DHT22;479;53.514;9.994;2024-02-16T15:42:40;13.70;99.90
981;DHT22;479;53.514;9.994;2024-02-16T15:45:08;13.60;99.90
981;DHT22;479;53.514;9.994;2024-02-16T15:47:36;13.60;99.90
981;DHT22;479;53.514;9.994;2024-02-16T15:50:05;13.60;99.90
981;DHT22;479;53.514;9.994;2024-02-16T15:52:33;13.50;99.90
981;DHT22;479;53.514;9.994;2024-02-16T15:55:00;13.60;99.90
981;DHT22;479;53.514;9.994;2024-02-16T15:57:28;13.50;99.90
981;DHT22;479;53.514;9.994;2024-02-16T15:59:55;13.50;99.90
981;DHT22;479;53.514;9.994;2024-02-16T16:02:23;13.40;99.90
981;DHT22;479;53.514;9.994;2024-02-16T16:04:50;13.40;99.90
981;DHT22;479;53.514;9.994;2024-02-16T16:07:17;13.40;99.90
981;DHT22;479;53.514;9.994;2024-02-16T16:09:44;13.40;99.90
981;DHT22;479;53.514;9.994;2024-02-16T16:12:11;13.40;99.90
981;DHT22;479;53.514;9.994;2024-02-16T16:14:40;13.40;99.90
981;DHT22;479;53.514;9.994;2024-02-16T16:17:07;13.40;99.90
981;DHT22;479;53.514;9.994;2024-02-16T16:19:33;13.30;99.90
981;DHT22;479;53.514;9.994;2024-02-16T16:22:00;13.30;99.90
981;DHT22;479;53.514;9.994;2024-02-16T16:24:27;13.20;99.90
981;DHT22;479;53.514;9.994;2024-02-16T16:26:54;13.20;99.90
981;DHT22;479;53.514;9.994;2024-02-16T16:29:21;13.10;99.90
981;DHT22;479;53.514;9.994;2024-02-16T16:31:50;13.00;99.90
981;DHT22;479;53.514;9.994;2024-02-16T16:34:18;13.00;99.90
981;DHT22;479;53.514;9.994;2024-02-16T16:36:45;13.10;99.90